sensor_id;sensor_type;location;lat;lon;timestamp;P1;durP1;ratioP1;P2;durP2;ratioP2
5483;SDS011;2764;48.794;8.326;2022-07-29T00:00:24;3.40;;;3.23;;
5483;SDS011;2764;48.794;8.326;2022-07-29T00:01:26;3.97;;;3.67;;
5483;SDS011;2764;48.794;8.326;2022-07-29T00:02:27;3.90;;;3.60;;
5483;SDS011;2764;48.794;8.326;2022-07-29T00:03:30;10.03;;;3.87;;
5483;SDS011;2764;48.794;8.326;2022-07-29T00:04:33;4.83;;;3.37;;
5483;SDS011;2764;48.794;8.326;2022-07-29T00:05:37;3.50;;;3.20;;
5483;SDS011;2764;48.794;8.326;2022-07-29T00:06:40;3.97;;;3.30;;
5483;SDS011;2764;48.794;8.326;2022-07-29T00:07:42;3.93;;;3.53;;
5483;SDS011;2764;48.794;8.326;2022-07-29T00:08:43;5.60;;;3.60;;
5483;SDS011;2764;48.794;8.326;2022-07-29T00:09:45;3.70;;;3.50;;
5483;SDS011;2764;48.794;8.326;2022-07-29T00:10:52;4.90;;;3.47;;
5483;SDS011;2764;48.794;8.326;2022-07-29T00:11:55;3.60;;;3.40;;
5483;SDS011;2764;48.794;8.326;2022-07-29T00:12:59;4.63;;;3.73;;
5483;SDS011;2764;48.794;8.326;2022-07-29T00:14:01;5.20;;;3.77;;
5483;SDS011;2764;48.794;8.326;2022-07-29T00:15:03;3.93;;;3.33;;
5483;SDS011;2764;48.794;8.326;2022-07-29T00:16:05;3.20;;;3.00;;
5483;SDS011;2764;48.794;8.326;2022-07-29T00:17:07;3.30;;;3.20;;
5483;SDS011;2764;48.794;8.326;2022-07-29T00:18:09;4.70;;;3.37;;
5483;SDS011;2764;48.794;8.326;2022-07-29T00:19:11;3.60;;;3.40;;
5483;SDS011;2764;48.794;8.326;2022-07-29T00:20:13;3.27;;;3.07;;
5483;SDS011;2764;48.794;8.326;2022-07-29T00:21:14;5.10;;;3.30;;
5483;SDS011;2764;48.794;8.326;2022-07-29T00:22:16;3.30;;;3.03;;
5483;SDS011;2764;48.794;8.326;2022-07-29T00:23:18;3.17;;;2.97;;
5483;SDS011;2764;48.794;8.326;2022-07-29T00:24:19;4.33;;;3.90;;
5483;SDS011;2764;48.794;8.326;2022-07-29T00:25:21;3.73;;;3.20;;
5483;SDS011;2764;48.794;8.326;2022-07-29T00:26:23;3.47;;;3.17;;
5483;SDS011;2764;48.794;8.326;2022-07-29T00:27:24;5.23;;;4.00;;
5483;SDS011;2764;48.794;8.326;2022-07-29T00:28:26;3.30;;;3.00;;
5483;SDS011;2764;48.794;8.326;2022-07-29T00:29:28;5.13;;;3.60;;
5483;SDS011;2764;48.794;8.326;2022-07-29T00:30:35;3.47;;;3.27;;
5483;SDS011;2764;48.794;8.326;2022-07-29T00:31:36;5.20;;;3.90;;
5483;SDS011;2764;48.794;8.326;2022-07-29T00:32:38;3.70;;;3.50;;
5483;SDS011;2764;48.794;8.326;2022-07-29T00:33:40;3.90;;;3.60;;
5483;SDS011;2764;48.794;8.326;2022-07-29T00:34:41;4.30;;;4.00;;
5483;SDS011;2764;48.794;8.326;2022-07-29T00:36:02;3.90;;;3.53;;
5483;SDS011;2764;48.794;8.326;2022-07-29T00:37:03;4.80;;;4.30;;
5483;SDS011;2764;48.794;8.326;2022-07-29T00:38:08;4.83;;;4.30;;
5483;SDS011;2764;48.794;8.326;2022-07-29T00:39:09;3.90;;;3.50;;
5483;SDS011;2764;48.794;8.326;2022-07-29T00:40:11;4.00;;;3.60;;
5483;SDS011;2764;48.794;8.326;2022-07-29T00:41:13;5.10;;;3.93;;
5483;SDS011;2764;48.794;8.326;2022-07-29T00:42:14;5.10;;;4.07;;
5483;SDS011;2764;48.794;8.326;2022-07-29T00:43:17;4.53;;;4.13;;
5483;SDS011;2764;48.794;8.326;2022-07-29T00:44:19;3.40;;;3.20;;
5483;SDS011;2764;48.794;8.326;2022-07-29T00:45:20;3.63;;;3.37;;
5483;SDS011;2764;48.794;8.326;2022-07-29T00:46:23;4.17;;;3.77;;
5483;SDS011;2764;48.794;8.326;2022-07-29T00:47:25;4.13;;;3.73;;
5483;SDS011;2764;48.794;8.326;2022-07-29T00:48:26;5.67;;;3.50;;
5483;SDS011;2764;48.794;8.326;2022-07-29T00:49:28;3.93;;;3.53;;
5483;SDS011;2764;48.794;8.326;2022-07-29T00:50:30;4.40;;;4.10;;
5483;SDS011;2764;48.794;8.326;2022-07-29T00:51:36;5.67;;;3.80;;
5483;SDS011;2764;48.794;8.326;2022-07-29T00:52:39;4.80;;;3.77;;
5483;SDS011;2764;48.794;8.326;2022-07-29T00:53:41;4.53;;;4.10;;
5483;SDS011;2764;48.794;8.326;2022-07-29T00:54:43;4.03;;;3.63;;
5483;SDS011;2764;48.794;8.326;2022-07-29T00:55:45;4.47;;;4.00;;
5483;SDS011;2764;48.794;8.326;2022-07-29T00:56:47;3.73;;;3.50;;
5483;SDS011;2764;48.794;8.326;2022-07-29T00:57:48;5.00;;;3.70;;
5483;SDS011;2764;48.794;8.326;2022-07-29T00:58:50;4.90;;;4.00;;
5483;SDS011;2764;48.794;8.326;2022-07-29T00:59:53;5.80;;;4.23;;
5483;SDS011;2764;48.794;8.326;2022-07-29T01:00:54;7.20;;;3.60;;
5483;SDS011;2764;48.794;8.326;2022-07-29T01:01:56;7.83;;;3.70;;
5483;SDS011;2764;48.794;8.326;2022-07-29T01:02:58;3.97;;;3.77;;
5483;SDS011;2764;48.794;8.326;2022-07-29T01:03:59;4.10;;;3.80;;
5483;SDS011;2764;48.794;8.326;2022-07-29T01:05:02;4.40;;;4.20;;
5483;SDS011;2764;48.794;8.326;2022-07-29T01:06:04;3.87;;;3.53;;
5483;SDS011;2764;48.794;8.326;2022-07-29T01:07:07;5.17;;;3.83;;
5483;SDS011;2764;48.794;8.326;2022-07-29T01:08:09;4.13;;;3.83;;
5483;SDS011;2764;48.794;8.326;2022-07-29T01:09:13;4.20;;;3.90;;
5483;SDS011;2764;48.794;8.326;2022-07-29T01:10:16;4.23;;;3.70;;
5483;SDS011;2764;48.794;8.326;2022-07-29T01:11:20;4.27;;;4.00;;
5483;SDS011;2764;48.794;8.326;2022-07-29T01:12:25;4.50;;;4.20;;
5483;SDS011;2764;48.794;8.326;2022-07-29T01:13:29;4.00;;;3.70;;
5483;SDS011;2764;48.794;8.326;2022-07-29T01:14:34;4.20;;;3.90;;
5483;SDS011;2764;48.794;8.326;2022-07-29T01:15:38;4.47;;;4.07;;
5483;SDS011;2764;48.794;8.326;2022-07-29T01:17:08;4.97;;;4.10;;
5483;SDS011;2764;48.794;8.326;2022-07-29T01:18:20;8.03;;;3.90;;
5483;SDS011;2764;48.794;8.326;2022-07-29T01:21:54;4.40;;;4.00;;
5483;SDS011;2764;48.794;8.326;2022-07-29T01:23:13;5.03;;;3.80;;
5483;SDS011;2764;48.794;8.326;2022-07-29T01:24:39;4.20;;;3.80;;
5483;SDS011;2764;48.794;8.326;2022-07-29T01:25:47;6.23;;;4.77;;
5483;SDS011;2764;48.794;8.326;2022-07-29T01:29:48;4.73;;;4.33;;
5483;SDS011;2764;48.794;8.326;2022-07-29T01:30:54;4.10;;;3.80;;
5483;SDS011;2764;48.794;8.326;2022-07-29T01:31:59;4.97;;;4.47;;
5483;SDS011;2764;48.794;8.326;2022-07-29T01:33:09;7.07;;;4.60;;
5483;SDS011;2764;48.794;8.326;2022-07-29T01:34:41;4.43;;;4.13;;
5483;SDS011;2764;48.794;8.326;2022-07-29T01:35:58;5.60;;;3.90;;
5483;SDS011;2764;48.794;8.326;2022-07-29T01:37:15;4.30;;;4.00;;
5483;SDS011;2764;48.794;8.326;2022-07-29T01:38:21;4.23;;;3.87;;
5483;SDS011;2764;48.794;8.326;2022-07-29T01:39:28;4.93;;;4.13;;
5483;SDS011;2764;48.794;8.326;2022-07-29T01:41:16;4.50;;;4.20;;
5483;SDS011;2764;48.794;8.326;2022-07-29T01:42:12;5.03;;;4.57;;
5483;SDS011;2764;48.794;8.326;2022-07-29T01:43:17;5.17;;;4.77;;
5483;SDS011;2764;48.794;8.326;2022-07-29T01:44:31;4.27;;;3.93;;
5483;SDS011;2764;48.794;8.326;2022-07-29T01:45:40;4.73;;;4.23;;
5483;SDS011;2764;48.794;8.326;2022-07-29T01:46:51;4.87;;;4.53;;
5483;SDS011;2764;48.794;8.326;2022-07-29T01:49:24;4.37;;;3.97;;
5483;SDS011;2764;48.794;8.326;2022-07-29T01:50:37;5.80;;;4.60;;
5483;SDS011;2764;48.794;8.326;2022-07-29T01:51:49;4.40;;;4.10;;
5483;SDS011;2764;48.794;8.326;2022-07-29T01:52:55;4.33;;;4.03;;
5483;SDS011;2764;48.794;8.326;2022-07-29T01:55:15;4.80;;;4.50;;
5483;SDS011;2764;48.794;8.326;2022-07-29T01:56:18;4.77;;;4.37;;
5483;SDS011;2764;48.794;8.326;2022-07-29T01:57:23;4.57;;;4.27;;
5483;SDS011;2764;48.794;8.326;2022-07-29T01:58:29;12.23;;;4.60;;
5483;SDS011;2764;48.794;8.326;2022-07-29T01:59:33;8.60;;;4.37;;
5483;SDS011;2764;48.794;8.326;2022-07-29T02:00:37;4.27;;;4.00;;
5483;SDS011;2764;48.794;8.326;2022-07-29T02:01:44;5.67;;;3.90;;
5483;SDS011;2764;48.794;8.326;2022-07-29T02:02:48;3.87;;;3.67;;
5483;SDS011;2764;48.794;8.326;2022-07-29T02:03:52;10.50;;;4.27;;
5483;SDS011;2764;48.794;8.326;2022-07-29T02:04:56;4.27;;;4.07;;
5483;SDS011;2764;48.794;8.326;2022-07-29T02:05:59;4.07;;;3.70;;
5483;SDS011;2764;48.794;8.326;2022-07-29T02:07:05;5.10;;;3.73;;
5483;SDS011;2764;48.794;8.326;2022-07-29T02:08:08;5.57;;;5.07;;
5483;SDS011;2764;48.794;8.326;2022-07-29T02:09:13;4.60;;;4.30;;
5483;SDS011;2764;48.794;8.326;2022-07-29T02:10:19;5.97;;;4.37;;
5483;SDS011;2764;48.794;8.326;2022-07-29T02:11:26;4.33;;;4.03;;
5483;SDS011;2764;48.794;8.326;2022-07-29T02:12:28;4.20;;;3.90;;
5483;SDS011;2764;48.794;8.326;2022-07-29T02:13:32;6.40;;;4.00;;
5483;SDS011;2764;48.794;8.326;2022-07-29T02:14:38;5.00;;;3.80;;
5483;SDS011;2764;48.794;8.326;2022-07-29T02:15:44;3.50;;;3.30;;
5483;SDS011;2764;48.794;8.326;2022-07-29T02:16:48;5.40;;;3.70;;
5483;SDS011;2764;48.794;8.326;2022-07-29T02:18:15;8.17;;;4.27;;
5483;SDS011;2764;48.794;8.326;2022-07-29T02:19:18;7.73;;;3.40;;
5483;SDS011;2764;48.794;8.326;2022-07-29T02:20:22;16.70;;;4.07;;
5483;SDS011;2764;48.794;8.326;2022-07-29T02:21:26;5.00;;;4.03;;
5483;SDS011;2764;48.794;8.326;2022-07-29T02:22:31;5.53;;;3.67;;
5483;SDS011;2764;48.794;8.326;2022-07-29T02:23:34;4.87;;;4.50;;
5483;SDS011;2764;48.794;8.326;2022-07-29T02:24:51;5.07;;;4.67;;
5483;SDS011;2764;48.794;8.326;2022-07-29T02:25:55;4.10;;;3.80;;
5483;SDS011;2764;48.794;8.326;2022-07-29T02:26:58;9.57;;;4.10;;
5483;SDS011;2764;48.794;8.326;2022-07-29T02:28:02;4.10;;;3.90;;
5483;SDS011;2764;48.794;8.326;2022-07-29T02:29:05;4.63;;;3.87;;
5483;SDS011;2764;48.794;8.326;2022-07-29T02:30:10;3.73;;;3.53;;
5483;SDS011;2764;48.794;8.326;2022-07-29T02:31:13;4.17;;;3.77;;
5483;SDS011;2764;48.794;8.326;2022-07-29T02:32:18;7.50;;;3.60;;
5483;SDS011;2764;48.794;8.326;2022-07-29T02:33:22;4.07;;;3.87;;
5483;SDS011;2764;48.794;8.326;2022-07-29T02:34:26;6.43;;;4.80;;
5483;SDS011;2764;48.794;8.326;2022-07-29T02:35:29;4.83;;;4.17;;
5483;SDS011;2764;48.794;8.326;2022-07-29T02:36:35;3.93;;;3.80;;
5483;SDS011;2764;48.794;8.326;2022-07-29T02:37:37;4.10;;;3.80;;
5483;SDS011;2764;48.794;8.326;2022-07-29T02:38:41;6.83;;;4.60;;
5483;SDS011;2764;48.794;8.326;2022-07-29T02:39:53;4.13;;;3.83;;
5483;SDS011;2764;48.794;8.326;2022-07-29T02:40:56;7.47;;;4.60;;
5483;SDS011;2764;48.794;8.326;2022-07-29T02:42:02;5.60;;;5.10;;
5483;SDS011;2764;48.794;8.326;2022-07-29T02:43:06;3.40;;;3.17;;
5483;SDS011;2764;48.794;8.326;2022-07-29T02:44:14;4.00;;;3.60;;
5483;SDS011;2764;48.794;8.326;2022-07-29T02:45:20;6.30;;;4.10;;
5483;SDS011;2764;48.794;8.326;2022-07-29T02:46:27;4.90;;;4.60;;
5483;SDS011;2764;48.794;8.326;2022-07-29T02:47:44;4.73;;;4.33;;
5483;SDS011;2764;48.794;8.326;2022-07-29T02:49:34;4.97;;;3.97;;
5483;SDS011;2764;48.794;8.326;2022-07-29T02:51:29;4.20;;;3.90;;
5483;SDS011;2764;48.794;8.326;2022-07-29T02:52:45;4.23;;;3.93;;
5483;SDS011;2764;48.794;8.326;2022-07-29T02:53:56;5.30;;;3.87;;
5483;SDS011;2764;48.794;8.326;2022-07-29T02:56:13;4.50;;;4.30;;
5483;SDS011;2764;48.794;8.326;2022-07-29T02:59:04;7.63;;;3.90;;
5483;SDS011;2764;48.794;8.326;2022-07-29T03:00:01;6.47;;;4.57;;
5483;SDS011;2764;48.794;8.326;2022-07-29T03:01:12;5.53;;;4.30;;
5483;SDS011;2764;48.794;8.326;2022-07-29T03:02:22;4.67;;;4.27;;
5483;SDS011;2764;48.794;8.326;2022-07-29T03:03:25;4.13;;;3.93;;
5483;SDS011;2764;48.794;8.326;2022-07-29T03:04:31;4.80;;;4.30;;
5483;SDS011;2764;48.794;8.326;2022-07-29T03:05:35;5.43;;;4.40;;
5483;SDS011;2764;48.794;8.326;2022-07-29T03:06:39;7.33;;;4.57;;
5483;SDS011;2764;48.794;8.326;2022-07-29T03:07:43;4.50;;;4.10;;
5483;SDS011;2764;48.794;8.326;2022-07-29T03:08:48;6.67;;;4.53;;
5483;SDS011;2764;48.794;8.326;2022-07-29T03:09:51;5.17;;;4.67;;
5483;SDS011;2764;48.794;8.326;2022-07-29T03:10:54;4.60;;;4.13;;
5483;SDS011;2764;48.794;8.326;2022-07-29T03:11:56;5.13;;;4.80;;
5483;SDS011;2764;48.794;8.326;2022-07-29T03:12:59;4.67;;;4.23;;
5483;SDS011;2764;48.794;8.326;2022-07-29T03:14:02;5.63;;;4.73;;
5483;SDS011;2764;48.794;8.326;2022-07-29T03:15:05;5.90;;;4.40;;
5483;SDS011;2764;48.794;8.326;2022-07-29T03:16:08;5.00;;;4.50;;
5483;SDS011;2764;48.794;8.326;2022-07-29T03:17:11;3.57;;;3.47;;
5483;SDS011;2764;48.794;8.326;2022-07-29T03:18:13;4.20;;;4.00;;
5483;SDS011;2764;48.794;8.326;2022-07-29T03:19:16;4.83;;;4.50;;
5483;SDS011;2764;48.794;8.326;2022-07-29T03:20:19;8.00;;;4.43;;
5483;SDS011;2764;48.794;8.326;2022-07-29T03:21:21;5.00;;;4.53;;
5483;SDS011;2764;48.794;8.326;2022-07-29T03:22:23;10.53;;;4.23;;
5483;SDS011;2764;48.794;8.326;2022-07-29T03:23:25;4.93;;;4.43;;
5483;SDS011;2764;48.794;8.326;2022-07-29T03:24:35;3.80;;;3.60;;
5483;SDS011;2764;48.794;8.326;2022-07-29T03:25:37;5.40;;;4.50;;
5483;SDS011;2764;48.794;8.326;2022-07-29T03:26:39;4.27;;;3.97;;
5483;SDS011;2764;48.794;8.326;2022-07-29T03:27:41;5.00;;;4.60;;
5483;SDS011;2764;48.794;8.326;2022-07-29T03:28:44;5.93;;;3.93;;
5483;SDS011;2764;48.794;8.326;2022-07-29T03:29:47;4.70;;;4.10;;
5483;SDS011;2764;48.794;8.326;2022-07-29T03:30:50;6.20;;;4.03;;
5483;SDS011;2764;48.794;8.326;2022-07-29T03:31:52;4.57;;;4.10;;
5483;SDS011;2764;48.794;8.326;2022-07-29T03:32:55;3.97;;;3.70;;
5483;SDS011;2764;48.794;8.326;2022-07-29T03:33:59;5.10;;;4.70;;
5483;SDS011;2764;48.794;8.326;2022-07-29T03:35:00;4.67;;;4.37;;
5483;SDS011;2764;48.794;8.326;2022-07-29T03:36:02;5.23;;;4.73;;
5483;SDS011;2764;48.794;8.326;2022-07-29T03:37:04;4.63;;;4.33;;
5483;SDS011;2764;48.794;8.326;2022-07-29T03:38:07;4.57;;;4.27;;
5483;SDS011;2764;48.794;8.326;2022-07-29T03:39:09;5.47;;;4.83;;
5483;SDS011;2764;48.794;8.326;2022-07-29T03:40:22;4.87;;;4.47;;
5483;SDS011;2764;48.794;8.326;2022-07-29T03:41:42;4.70;;;4.30;;
5483;SDS011;2764;48.794;8.326;2022-07-29T03:42:45;4.43;;;4.03;;
5483;SDS011;2764;48.794;8.326;2022-07-29T03:43:49;4.67;;;4.37;;
5483;SDS011;2764;48.794;8.326;2022-07-29T03:44:53;4.90;;;4.60;;
5483;SDS011;2764;48.794;8.326;2022-07-29T03:45:57;4.93;;;4.53;;
5483;SDS011;2764;48.794;8.326;2022-07-29T03:47:01;6.57;;;4.57;;
5483;SDS011;2764;48.794;8.326;2022-07-29T03:48:07;4.40;;;4.10;;
5483;SDS011;2764;48.794;8.326;2022-07-29T03:49:11;5.27;;;4.97;;
5483;SDS011;2764;48.794;8.326;2022-07-29T03:50:15;8.80;;;4.57;;
5483;SDS011;2764;48.794;8.326;2022-07-29T03:51:18;4.47;;;4.17;;
5483;SDS011;2764;48.794;8.326;2022-07-29T03:52:34;5.17;;;4.70;;
5483;SDS011;2764;48.794;8.326;2022-07-29T03:53:36;5.87;;;4.60;;
5483;SDS011;2764;48.794;8.326;2022-07-29T03:54:39;4.37;;;4.00;;
5483;SDS011;2764;48.794;8.326;2022-07-29T03:55:41;9.90;;;5.40;;
5483;SDS011;2764;48.794;8.326;2022-07-29T03:56:46;8.43;;;4.37;;
5483;SDS011;2764;48.794;8.326;2022-07-29T03:57:51;5.43;;;5.03;;
5483;SDS011;2764;48.794;8.326;2022-07-29T03:58:54;5.40;;;5.00;;
5483;SDS011;2764;48.794;8.326;2022-07-29T03:59:55;5.03;;;4.53;;
5483;SDS011;2764;48.794;8.326;2022-07-29T04:00:58;6.23;;;4.57;;
5483;SDS011;2764;48.794;8.326;2022-07-29T04:02:01;5.00;;;4.60;;
5483;SDS011;2764;48.794;8.326;2022-07-29T04:03:04;5.30;;;4.93;;
5483;SDS011;2764;48.794;8.326;2022-07-29T04:04:12;5.57;;;5.07;;
5483;SDS011;2764;48.794;8.326;2022-07-29T04:05:14;5.20;;;4.80;;
5483;SDS011;2764;48.794;8.326;2022-07-29T04:06:16;4.50;;;4.20;;
5483;SDS011;2764;48.794;8.326;2022-07-29T04:07:18;6.07;;;5.53;;
5483;SDS011;2764;48.794;8.326;2022-07-29T04:08:20;5.60;;;5.10;;
5483;SDS011;2764;48.794;8.326;2022-07-29T04:09:21;7.67;;;5.13;;
5483;SDS011;2764;48.794;8.326;2022-07-29T04:10:23;7.13;;;4.97;;
5483;SDS011;2764;48.794;8.326;2022-07-29T04:11:32;5.67;;;5.23;;
5483;SDS011;2764;48.794;8.326;2022-07-29T04:12:54;6.23;;;5.57;;
5483;SDS011;2764;48.794;8.326;2022-07-29T04:13:55;6.03;;;5.37;;
5483;SDS011;2764;48.794;8.326;2022-07-29T04:14:57;6.93;;;5.40;;
5483;SDS011;2764;48.794;8.326;2022-07-29T04:15:58;9.03;;;5.50;;
5483;SDS011;2764;48.794;8.326;2022-07-29T04:17:01;6.93;;;5.00;;
5483;SDS011;2764;48.794;8.326;2022-07-29T04:18:04;5.20;;;4.90;;
5483;SDS011;2764;48.794;8.326;2022-07-29T04:19:06;7.43;;;4.93;;
5483;SDS011;2764;48.794;8.326;2022-07-29T04:20:08;5.27;;;4.87;;
5483;SDS011;2764;48.794;8.326;2022-07-29T04:21:10;5.93;;;5.53;;
5483;SDS011;2764;48.794;8.326;2022-07-29T04:22:13;4.90;;;4.40;;
5483;SDS011;2764;48.794;8.326;2022-07-29T04:23:15;8.30;;;5.10;;
5483;SDS011;2764;48.794;8.326;2022-07-29T04:24:16;4.70;;;4.50;;
5483;SDS011;2764;48.794;8.326;2022-07-29T04:25:19;4.73;;;4.47;;
5483;SDS011;2764;48.794;8.326;2022-07-29T04:26:21;5.17;;;4.67;;
5483;SDS011;2764;48.794;8.326;2022-07-29T04:27:22;5.93;;;5.43;;
5483;SDS011;2764;48.794;8.326;2022-07-29T04:28:24;6.37;;;5.30;;
5483;SDS011;2764;48.794;8.326;2022-07-29T04:29:27;5.70;;;5.20;;
5483;SDS011;2764;48.794;8.326;2022-07-29T04:30:29;8.63;;;4.80;;
5483;SDS011;2764;48.794;8.326;2022-07-29T04:31:31;5.90;;;5.30;;
5483;SDS011;2764;48.794;8.326;2022-07-29T04:32:33;12.40;;;5.70;;
5483;SDS011;2764;48.794;8.326;2022-07-29T04:33:35;6.40;;;5.30;;
5483;SDS011;2764;48.794;8.326;2022-07-29T04:34:36;7.60;;;5.90;;
5483;SDS011;2764;48.794;8.326;2022-07-29T04:35:38;6.30;;;5.70;;
5483;SDS011;2764;48.794;8.326;2022-07-29T04:36:52;7.10;;;6.50;;
5483;SDS011;2764;48.794;8.326;2022-07-29T04:37:54;10.07;;;7.37;;
5483;SDS011;2764;48.794;8.326;2022-07-29T04:38:56;8.10;;;6.50;;
5483;SDS011;2764;48.794;8.326;2022-07-29T04:39:57;6.20;;;5.80;;
5483;SDS011;2764;48.794;8.326;2022-07-29T04:40:59;8.33;;;6.53;;
5483;SDS011;2764;48.794;8.326;2022-07-29T04:42:01;10.30;;;6.63;;
5483;SDS011;2764;48.794;8.326;2022-07-29T04:43:02;8.20;;;6.90;;
5483;SDS011;2764;48.794;8.326;2022-07-29T04:44:06;7.33;;;5.80;;
5483;SDS011;2764;48.794;8.326;2022-07-29T04:45:09;9.47;;;5.43;;
5483;SDS011;2764;48.794;8.326;2022-07-29T04:46:11;6.83;;;6.07;;
5483;SDS011;2764;48.794;8.326;2022-07-29T04:47:12;6.77;;;6.27;;
5483;SDS011;2764;48.794;8.326;2022-07-29T04:48:14;6.37;;;5.87;;
5483;SDS011;2764;48.794;8.326;2022-07-29T04:49:15;7.63;;;5.83;;
5483;SDS011;2764;48.794;8.326;2022-07-29T04:50:17;5.77;;;5.37;;
5483;SDS011;2764;48.794;8.326;2022-07-29T04:51:19;6.43;;;5.83;;
5483;SDS011;2764;48.794;8.326;2022-07-29T04:52:21;6.27;;;5.50;;
5483;SDS011;2764;48.794;8.326;2022-07-29T04:53:22;6.57;;;5.90;;
5483;SDS011;2764;48.794;8.326;2022-07-29T04:54:24;8.03;;;6.57;;
5483;SDS011;2764;48.794;8.326;2022-07-29T04:55:26;7.03;;;6.00;;
5483;SDS011;2764;48.794;8.326;2022-07-29T04:56:28;9.83;;;7.13;;
5483;SDS011;2764;48.794;8.326;2022-07-29T04:57:30;8.17;;;6.43;;
5483;SDS011;2764;48.794;8.326;2022-07-29T04:58:33;7.10;;;6.13;;
5483;SDS011;2764;48.794;8.326;2022-07-29T04:59:36;6.27;;;5.67;;
5483;SDS011;2764;48.794;8.326;2022-07-29T05:00:38;9.67;;;6.37;;
5483;SDS011;2764;48.794;8.326;2022-07-29T05:01:40;7.90;;;7.07;;
5483;SDS011;2764;48.794;8.326;2022-07-29T05:02:43;8.53;;;7.57;;
5483;SDS011;2764;48.794;8.326;2022-07-29T05:03:45;11.37;;;7.43;;
5483;SDS011;2764;48.794;8.326;2022-07-29T05:04:46;12.20;;;7.53;;
5483;SDS011;2764;48.794;8.326;2022-07-29T05:05:48;10.97;;;7.03;;
5483;SDS011;2764;48.794;8.326;2022-07-29T05:06:50;9.93;;;7.30;;
5483;SDS011;2764;48.794;8.326;2022-07-29T05:07:51;17.23;;;6.80;;
5483;SDS011;2764;48.794;8.326;2022-07-29T05:08:53;6.87;;;6.27;;
5483;SDS011;2764;48.794;8.326;2022-07-29T05:09:55;10.70;;;7.33;;
5483;SDS011;2764;48.794;8.326;2022-07-29T05:10:58;11.57;;;7.30;;
5483;SDS011;2764;48.794;8.326;2022-07-29T05:12:12;8.00;;;7.30;;
5483;SDS011;2764;48.794;8.326;2022-07-29T05:13:13;8.63;;;7.60;;
5483;SDS011;2764;48.794;8.326;2022-07-29T05:14:15;9.13;;;7.30;;
5483;SDS011;2764;48.794;8.326;2022-07-29T05:15:17;8.93;;;7.83;;
5483;SDS011;2764;48.794;8.326;2022-07-29T05:16:19;12.13;;;7.70;;
5483;SDS011;2764;48.794;8.326;2022-07-29T05:17:21;13.53;;;7.70;;
5483;SDS011;2764;48.794;8.326;2022-07-29T05:18:23;9.73;;;7.50;;
5483;SDS011;2764;48.794;8.326;2022-07-29T05:19:26;14.10;;;8.30;;
5483;SDS011;2764;48.794;8.326;2022-07-29T05:20:28;7.53;;;6.93;;
5483;SDS011;2764;48.794;8.326;2022-07-29T05:21:30;11.40;;;7.17;;
5483;SDS011;2764;48.794;8.326;2022-07-29T05:22:32;7.80;;;7.00;;
5483;SDS011;2764;48.794;8.326;2022-07-29T05:23:34;10.73;;;6.80;;
5483;SDS011;2764;48.794;8.326;2022-07-29T05:24:35;6.87;;;6.17;;
5483;SDS011;2764;48.794;8.326;2022-07-29T05:25:37;8.27;;;6.37;;
5483;SDS011;2764;48.794;8.326;2022-07-29T05:26:44;7.67;;;6.70;;
5483;SDS011;2764;48.794;8.326;2022-07-29T05:27:45;9.27;;;6.87;;
5483;SDS011;2764;48.794;8.326;2022-07-29T05:28:51;15.53;;;7.20;;
5483;SDS011;2764;48.794;8.326;2022-07-29T05:29:52;10.60;;;6.47;;
5483;SDS011;2764;48.794;8.326;2022-07-29T05:30:54;20.87;;;7.37;;
5483;SDS011;2764;48.794;8.326;2022-07-29T05:31:56;12.50;;;7.00;;
5483;SDS011;2764;48.794;8.326;2022-07-29T05:32:58;8.07;;;7.20;;
5483;SDS011;2764;48.794;8.326;2022-07-29T05:33:59;8.80;;;7.17;;
5483;SDS011;2764;48.794;8.326;2022-07-29T05:35:01;10.23;;;7.97;;
5483;SDS011;2764;48.794;8.326;2022-07-29T05:36:03;8.20;;;7.40;;
5483;SDS011;2764;48.794;8.326;2022-07-29T05:37:07;12.67;;;7.63;;
5483;SDS011;2764;48.794;8.326;2022-07-29T05:38:09;8.43;;;7.73;;
5483;SDS011;2764;48.794;8.326;2022-07-29T05:39:11;10.57;;;7.97;;
5483;SDS011;2764;48.794;8.326;2022-07-29T05:40:14;14.13;;;8.07;;
5483;SDS011;2764;48.794;8.326;2022-07-29T05:41:15;12.13;;;8.37;;
5483;SDS011;2764;48.794;8.326;2022-07-29T05:42:17;9.80;;;7.07;;
5483;SDS011;2764;48.794;8.326;2022-07-29T05:43:19;13.40;;;7.93;;
5483;SDS011;2764;48.794;8.326;2022-07-29T05:44:22;11.40;;;7.57;;
5483;SDS011;2764;48.794;8.326;2022-07-29T05:45:25;13.10;;;8.20;;
5483;SDS011;2764;48.794;8.326;2022-07-29T05:46:27;8.10;;;6.70;;
5483;SDS011;2764;48.794;8.326;2022-07-29T05:47:29;8.27;;;7.53;;
5483;SDS011;2764;48.794;8.326;2022-07-29T05:48:31;9.77;;;7.00;;
5483;SDS011;2764;48.794;8.326;2022-07-29T05:49:33;9.70;;;7.90;;
5483;SDS011;2764;48.794;8.326;2022-07-29T05:50:35;6.90;;;6.30;;
5483;SDS011;2764;48.794;8.326;2022-07-29T05:51:44;8.03;;;7.10;;
5483;SDS011;2764;48.794;8.326;2022-07-29T05:52:46;7.73;;;6.90;;
5483;SDS011;2764;48.794;8.326;2022-07-29T05:53:50;7.87;;;7.17;;
5483;SDS011;2764;48.794;8.326;2022-07-29T05:54:51;7.50;;;6.90;;
5483;SDS011;2764;48.794;8.326;2022-07-29T05:55:53;8.57;;;7.43;;
5483;SDS011;2764;48.794;8.326;2022-07-29T05:56:55;6.57;;;6.07;;
5483;SDS011;2764;48.794;8.326;2022-07-29T05:57:56;6.17;;;5.70;;
5483;SDS011;2764;48.794;8.326;2022-07-29T05:58:58;10.27;;;6.07;;
5483;SDS011;2764;48.794;8.326;2022-07-29T06:00:00;6.60;;;5.40;;
5483;SDS011;2764;48.794;8.326;2022-07-29T06:01:02;6.60;;;6.10;;
5483;SDS011;2764;48.794;8.326;2022-07-29T06:02:04;6.77;;;6.10;;
5483;SDS011;2764;48.794;8.326;2022-07-29T06:03:06;6.80;;;6.20;;
5483;SDS011;2764;48.794;8.326;2022-07-29T06:04:08;6.50;;;5.90;;
5483;SDS011;2764;48.794;8.326;2022-07-29T06:05:10;6.83;;;6.33;;
5483;SDS011;2764;48.794;8.326;2022-07-29T06:06:17;7.60;;;6.13;;
5483;SDS011;2764;48.794;8.326;2022-07-29T06:07:19;5.97;;;5.53;;
5483;SDS011;2764;48.794;8.326;2022-07-29T06:08:21;5.33;;;5.00;;
5483;SDS011;2764;48.794;8.326;2022-07-29T06:09:22;6.57;;;5.97;;
5483;SDS011;2764;48.794;8.326;2022-07-29T06:10:24;8.70;;;6.57;;
5483;SDS011;2764;48.794;8.326;2022-07-29T06:11:27;6.70;;;6.20;;
5483;SDS011;2764;48.794;8.326;2022-07-29T06:12:29;7.53;;;5.50;;
5483;SDS011;2764;48.794;8.326;2022-07-29T06:13:30;8.30;;;5.73;;
5483;SDS011;2764;48.794;8.326;2022-07-29T06:14:33;5.93;;;5.53;;
5483;SDS011;2764;48.794;8.326;2022-07-29T06:15:34;8.33;;;6.10;;
5483;SDS011;2764;48.794;8.326;2022-07-29T06:16:36;8.40;;;5.57;;
5483;SDS011;2764;48.794;8.326;2022-07-29T06:17:38;9.47;;;5.80;;
5483;SDS011;2764;48.794;8.326;2022-07-29T06:19:00;7.83;;;5.50;;
5483;SDS011;2764;48.794;8.326;2022-07-29T06:20:02;6.10;;;5.60;;
5483;SDS011;2764;48.794;8.326;2022-07-29T06:21:07;5.77;;;5.27;;
5483;SDS011;2764;48.794;8.326;2022-07-29T06:22:10;9.20;;;5.50;;
5483;SDS011;2764;48.794;8.326;2022-07-29T06:23:12;6.13;;;5.63;;
5483;SDS011;2764;48.794;8.326;2022-07-29T06:24:14;6.20;;;5.80;;
5483;SDS011;2764;48.794;8.326;2022-07-29T06:25:17;6.50;;;5.97;;
5483;SDS011;2764;48.794;8.326;2022-07-29T06:26:19;7.23;;;5.40;;
5483;SDS011;2764;48.794;8.326;2022-07-29T06:27:32;10.87;;;6.17;;
5483;SDS011;2764;48.794;8.326;2022-07-29T06:28:35;6.03;;;5.23;;
5483;SDS011;2764;48.794;8.326;2022-07-29T06:29:37;9.43;;;5.47;;
5483;SDS011;2764;48.794;8.326;2022-07-29T06:30:39;10.37;;;5.37;;
5483;SDS011;2764;48.794;8.326;2022-07-29T06:31:41;7.00;;;5.50;;
5483;SDS011;2764;48.794;8.326;2022-07-29T06:32:43;7.63;;;5.57;;
5483;SDS011;2764;48.794;8.326;2022-07-29T06:33:45;6.00;;;5.43;;
5483;SDS011;2764;48.794;8.326;2022-07-29T06:34:46;6.47;;;5.83;;
5483;SDS011;2764;48.794;8.326;2022-07-29T06:35:49;10.57;;;6.67;;
5483;SDS011;2764;48.794;8.326;2022-07-29T06:36:55;5.30;;;4.90;;
5483;SDS011;2764;48.794;8.326;2022-07-29T06:37:56;7.00;;;5.57;;
5483;SDS011;2764;48.794;8.326;2022-07-29T06:39:00;8.60;;;5.27;;
5483;SDS011;2764;48.794;8.326;2022-07-29T06:40:04;6.37;;;5.77;;
5483;SDS011;2764;48.794;8.326;2022-07-29T06:41:24;6.07;;;5.23;;
5483;SDS011;2764;48.794;8.326;2022-07-29T06:42:27;11.40;;;5.70;;
5483;SDS011;2764;48.794;8.326;2022-07-29T06:43:35;5.77;;;5.20;;
5483;SDS011;2764;48.794;8.326;2022-07-29T06:44:55;5.70;;;5.20;;
5483;SDS011;2764;48.794;8.326;2022-07-29T06:45:57;5.80;;;5.30;;
5483;SDS011;2764;48.794;8.326;2022-07-29T06:47:00;6.87;;;5.47;;
5483;SDS011;2764;48.794;8.326;2022-07-29T06:48:02;12.13;;;5.80;;
5483;SDS011;2764;48.794;8.326;2022-07-29T06:49:04;6.17;;;5.57;;
5483;SDS011;2764;48.794;8.326;2022-07-29T06:50:06;5.47;;;4.90;;
5483;SDS011;2764;48.794;8.326;2022-07-29T06:51:12;6.03;;;5.33;;